createdAt,value
2022-08-09T00:02:42.856Z,77.31
2022-08-09T00:06:16.421Z,76.80
2022-08-09T00:08:11.118Z,77.39
2022-08-09T00:10:40.745Z,77.18
2022-08-09T00:13:17.093Z,77.64
2022-08-09T00:15:59.389Z,77.37
2022-08-09T00:18:34.702Z,78.58
2022-08-09T00:21:07.746Z,77.60
2022-08-09T00:23:56.095Z,77.71
2022-08-09T00:26:32.262Z,77.91
2022-08-09T00:29:02.203Z,77.89
2022-08-09T00:31:59.948Z,77.80
2022-08-09T00:34:19.375Z,78.85
2022-08-09T00:36:48.769Z,78.00
2022-08-09T00:40:13.128Z,78.97
2022-08-09T00:44:10.714Z,79.09
2022-08-09T00:44:51.581Z,79.87
2022-08-09T00:47:23.854Z,80.75
2022-08-09T00:49:54.822Z,79.93
2022-08-09T00:52:30.052Z,80.47
2022-08-09T00:55:00.430Z,80.79
2022-08-09T00:57:34.800Z,80.72
2022-08-09T01:00:22.068Z,81.23
2022-08-09T01:02:55.858Z,81.65
2022-08-09T01:05:51.544Z,81.31
2022-08-09T01:08:28.976Z,81.64
2022-08-09T01:11:08.591Z,82.11
2022-08-09T01:13:58.675Z,81.86
2022-08-09T01:16:32.932Z,81.67
2022-08-09T01:19:04.421Z,82.49
2022-08-09T01:21:51.350Z,83.08
2022-08-09T01:24:29.554Z,83.13
2022-08-09T01:27:17.966Z,83.62
2022-08-09T01:29:56.003Z,84.26
2022-08-09T01:32:38.963Z,83.32
2022-08-09T01:35:37.527Z,83.81
2022-08-09T01:38:15.372Z,83.66
2022-08-09T01:41:05.324Z,82.74
2022-08-09T01:43:47.879Z,84.52
2022-08-09T01:46:29.801Z,84.85
2022-08-09T01:49:10.045Z,84.98
2022-08-09T01:51:54.373Z,84.82
2022-08-09T01:54:33.025Z,84.98
2022-08-09T01:57:06.258Z,85.68
2022-08-09T01:59:50.877Z,84.84
2022-08-09T02:02:20.912Z,85.61
2022-08-09T02:04:50.789Z,86.03
2022-08-09T02:08:40.464Z,85.74
2022-08-09T02:10:13.517Z,85.52
2022-08-09T02:12:44.315Z,86.07
2022-08-09T02:15:16.841Z,86.70
2022-08-09T02:18:09.499Z,87.07
2022-08-09T02:20:40.782Z,86.86
2022-08-09T02:23:17.950Z,87.88
2022-08-09T02:25:52.910Z,87.81
2022-08-09T02:28:36.043Z,88.39
2022-08-09T02:31:07.407Z,88.28
2022-08-09T02:34:06.560Z,88.18
2022-08-09T02:36:35.134Z,88.85
2022-08-09T02:39:06.153Z,88.58
2022-08-09T02:41:41.822Z,88.47
2022-08-09T02:44:29.384Z,88.21
2022-08-09T02:47:02.360Z,88.10
2022-08-09T02:49:38.999Z,87.62
2022-08-09T02:52:13.513Z,88.00
2022-08-09T02:54:53.928Z,88.25
2022-08-09T02:57:25.145Z,87.52
2022-08-09T03:00:24.779Z,88.19
2022-08-09T03:03:00.274Z,88.16
2022-08-09T03:05:34.394Z,88.30
2022-08-09T03:08:04.648Z,87.44
2022-08-09T03:10:34.522Z,87.84
2022-08-09T03:13:02.665Z,89.00
2022-08-09T03:15:40.635Z,89.15
2022-08-09T03:18:30.602Z,89.52
2022-08-09T03:20:59.407Z,90.12
2022-08-09T03:23:26.547Z,89.73
2022-08-09T03:25:58.781Z,90.21
2022-08-09T03:28:31.262Z,89.93
2022-08-09T03:31:04.234Z,90.50
2022-08-09T03:33:54.302Z,91.63
2022-08-09T03:36:27.078Z,91.99
2022-08-09T03:38:56.830Z,92.35
2022-08-09T03:41:29.866Z,92.74
2022-08-09T03:44:12.154Z,92.22
2022-08-09T03:46:39.475Z,92.16
2022-08-09T03:49:09.561Z,91.95
2022-08-09T03:51:58.794Z,92.29
2022-08-09T03:54:34.338Z,92.00
2022-08-09T03:57:18.297Z,92.40
2022-08-09T03:59:55.789Z,91.97
2022-08-09T04:02:29.044Z,91.97
2022-08-09T04:05:06.371Z,91.70
2022-08-09T04:07:52.537Z,92.29
2022-08-09T04:10:29.595Z,92.02
2022-08-09T04:13:00.702Z,91.78
2022-08-09T04:15:39.140Z,92.39
2022-08-09T04:18:17.813Z,92.05
2022-08-09T04:20:47.435Z,92.28
2022-08-09T04:23:17.234Z,92.52
2022-08-09T04:25:49.859Z,93.10
2022-08-09T04:28:34.241Z,92.93
2022-08-09T04:31:07.798Z,92.79
2022-08-09T04:33:51.953Z,92.79
2022-08-09T04:36:29.369Z,93.40
2022-08-09T04:39:03.618Z,92.47
2022-08-09T04:41:33.812Z,93.00
2022-08-09T04:44:12.413Z,92.59
2022-08-09T04:46:59.781Z,92.30
2022-08-09T04:49:54.781Z,91.83
2022-08-09T04:52:26.782Z,91.65
2022-08-09T04:54:56.567Z,91.50
2022-08-09T04:57:25.142Z,90.88
2022-08-09T04:59:55.201Z,89.56
2022-08-09T05:02:23.929Z,89.70
2022-08-09T05:04:55.356Z,89.50
2022-08-09T05:07:24.499Z,89.54
2022-08-09T05:09:51.519Z,89.11
2022-08-09T05:12:18.931Z,88.95
2022-08-09T05:14:49.695Z,88.16
2022-08-09T05:18:38.122Z,88.46
2022-08-09T05:20:05.268Z,88.43
2022-08-09T05:22:36.223Z,87.76
2022-08-09T05:25:20.880Z,87.64
2022-08-09T05:27:48.452Z,86.59
2022-08-09T05:30:16.035Z,87.17
2022-08-09T05:32:50.904Z,87.03
2022-08-09T05:35:18.465Z,86.61
2022-08-09T05:37:50.954Z,86.88
2022-08-09T05:40:18.671Z,85.41
2022-08-09T05:42:46.793Z,85.72
2022-08-09T05:45:14.154Z,84.37
2022-08-09T05:47:51.611Z,84.78
2022-08-09T05:50:43.993Z,85.27
2022-08-09T05:53:21.553Z,84.53
2022-08-09T05:55:58.743Z,83.08
2022-08-09T05:58:25.745Z,83.23
2022-08-09T06:00:53.878Z,82.56
2022-08-09T06:03:20.993Z,82.75
2022-08-09T06:05:54.757Z,81.94
2022-08-09T06:08:28.042Z,81.81
2022-08-09T06:10:57.947Z,81.86
2022-08-09T06:13:28.268Z,79.90
2022-08-09T06:16:01.526Z,79.53
2022-08-09T06:18:32.339Z,79.25
2022-08-09T06:20:59.738Z,80.39
2022-08-09T06:23:58.983Z,79.28
2022-08-09T06:26:20.158Z,79.16
2022-08-09T06:28:50.169Z,78.87
2022-08-09T06:31:31.419Z,78.52
2022-08-09T06:34:06.838Z,76.94
2022-08-09T06:36:34.592Z,75.84
2022-08-09T06:39:02.398Z,74.98
2022-08-09T06:42:07.480Z,74.07
2022-08-09T06:44:25.273Z,73.59
2022-08-09T06:46:55.278Z,73.09
2022-08-09T06:49:44.706Z,73.26
2022-08-09T06:52:11.944Z,72.50
2022-08-09T06:54:39.271Z,71.25
2022-08-09T06:57:08.786Z,70.20
2022-08-09T07:00:50.102Z,69.33
2022-08-09T07:02:30.912Z,69.63
2022-08-09T07:05:00.105Z,68.21
2022-08-09T07:07:58.863Z,67.16
2022-08-09T07:10:29.579Z,66.73
2022-08-09T07:12:59.974Z,65.32
2022-08-09T07:15:53.968Z,64.27
2022-08-09T07:18:19.516Z,63.89
2022-08-09T07:20:47.686Z,63.68
2022-08-09T07:23:18.951Z,63.88
2022-08-09T07:25:52.137Z,62.62
2022-08-09T07:28:28.009Z,62.30
2022-08-09T07:30:55.862Z,61.51
2022-08-09T07:33:23.280Z,60.98
2022-08-09T07:35:53.205Z,60.53
2022-08-09T07:38:23.514Z,60.40
2022-08-09T07:41:00.982Z,59.83
2022-08-09T07:43:50.106Z,59.29
2022-08-09T07:46:25.316Z,58.82
2022-08-09T07:49:00.156Z,58.14
2022-08-09T07:52:04.805Z,57.47
2022-08-09T07:54:15.729Z,57.61
2022-08-09T07:56:54.931Z,56.81
2022-08-09T07:59:33.529Z,56.22
2022-08-09T08:02:02.951Z,55.55
2022-08-09T08:04:31.922Z,55.46
2022-08-09T08:07:15.319Z,54.57
2022-08-09T08:10:05.604Z,54.73
2022-08-09T08:12:43.101Z,53.84
2022-08-09T08:15:17.303Z,53.05
2022-08-09T08:17:54.009Z,51.69
2022-08-09T08:20:30.447Z,51.50
2022-08-09T08:23:17.173Z,53.11
2022-08-09T08:25:49.888Z,51.05
2022-08-09T08:28:25.719Z,51.67
2022-08-09T08:31:14.311Z,50.93
2022-08-09T08:33:52.806Z,50.35
2022-08-09T08:36:29.303Z,51.12
2022-08-09T08:38:59.770Z,50.04
2022-08-09T08:41:42.208Z,48.97
2022-08-09T08:44:16.483Z,49.96
2022-08-09T08:47:03.234Z,49.42
2022-08-09T08:49:47.069Z,48.03
2022-08-09T08:52:52.873Z,47.33
2022-08-09T08:55:06.247Z,47.93
2022-08-09T08:57:35.407Z,47.11
2022-08-09T09:00:13.090Z,46.37
2022-08-09T09:02:52.851Z,47.22
2022-08-09T09:05:57.433Z,46.51
2022-08-09T09:08:30.065Z,44.54
2022-08-09T09:11:03.865Z,43.62
2022-08-09T09:13:47.287Z,43.38
2022-08-09T09:16:32.425Z,43.37
2022-08-09T09:19:39.659Z,41.52
2022-08-09T09:21:59.185Z,41.95
2022-08-09T09:24:30.116Z,43.01
2022-08-09T09:26:58.794Z,43.06
2022-08-09T09:30:13.934Z,42.18
2022-08-09T09:32:34.188Z,42.44
2022-08-09T09:35:09.543Z,41.30
2022-08-09T09:37:40.352Z,41.52
2022-08-09T09:40:11.642Z,41.18
2022-08-09T09:42:39.460Z,42.01
2022-08-09T09:45:10.469Z,41.22
2022-08-09T09:47:50.411Z,40.71
2022-08-09T09:50:49.285Z,40.60
2022-08-09T09:53:43.621Z,39.03
2022-08-09T09:56:19.834Z,39.07
2022-08-09T09:58:58.667Z,40.83
2022-08-09T10:01:36.796Z,39.15
2022-08-09T10:04:15.876Z,38.29
2022-08-09T10:06:46.981Z,39.06
2022-08-09T10:09:22.844Z,39.85
2022-08-09T10:12:14.302Z,38.25
2022-08-09T10:14:50.054Z,39.77
2022-08-09T10:17:39.524Z,38.21
2022-08-09T10:20:26.983Z,38.34
2022-08-09T10:23:17.347Z,38.49
2022-08-09T10:26:04.406Z,38.04
2022-08-09T10:28:36.604Z,36.95
2022-08-09T10:34:10.035Z,38.88
2022-08-09T10:36:40.447Z,39.59
2022-08-09T10:39:15.844Z,37.67
2022-08-09T10:41:48.043Z,35.52
2022-08-09T10:44:23.142Z,35.29
2022-08-09T10:48:10.143Z,36.55
2022-08-09T10:50:03.283Z,35.18
2022-08-09T10:53:10.241Z,36.65
2022-08-09T10:55:58.046Z,37.44
2022-08-09T10:58:35.027Z,37.63
2022-08-09T11:03:02.837Z,37.74
2022-08-09T11:04:20.074Z,33.90
2022-08-09T11:06:57.753Z,34.46
2022-08-09T11:09:47.818Z,35.99
2022-08-09T11:12:17.369Z,35.90
2022-08-09T11:14:54.704Z,34.60
2022-08-09T11:17:22.818Z,34.41
2022-08-09T11:20:11.460Z,33.96
2022-08-09T11:22:55.301Z,33.66
2022-08-09T11:25:47.091Z,33.11
2022-08-09T11:28:33.850Z,31.28
2022-08-09T11:31:36.416Z,32.24
2022-08-09T11:34:09.956Z,34.31
2022-08-09T11:36:42.953Z,32.64
2022-08-09T11:39:11.664Z,33.69
2022-08-09T11:41:40.661Z,33.63
2022-08-09T11:44:08.560Z,33.10
2022-08-09T11:46:56.970Z,33.96
2022-08-09T11:50:52.403Z,30.53
2022-08-09T11:53:20.983Z,31.98
2022-08-09T11:55:53.318Z,30.86
2022-08-09T11:58:30.467Z,31.59
2022-08-09T12:01:37.299Z,31.28
2022-08-09T12:04:06.391Z,31.54
2022-08-09T12:06:35.510Z,34.03
2022-08-09T12:09:19.332Z,32.10
2022-08-09T12:12:05.321Z,33.32
2022-08-09T12:14:36.997Z,31.75
2022-08-09T12:17:28.058Z,32.55
2022-08-09T12:20:00.686Z,31.29
2022-08-09T12:22:29.215Z,31.25
2022-08-09T12:25:14.759Z,31.21
2022-08-09T12:28:58.339Z,32.71
2022-08-09T12:30:36.483Z,32.50
2022-08-09T12:33:07.320Z,31.10
2022-08-09T12:35:40.059Z,31.40
2022-08-09T12:38:38.544Z,32.66
2022-08-09T12:41:07.224Z,31.38
2022-08-09T12:44:06.115Z,31.17
2022-08-09T12:46:26.737Z,32.31
2022-08-09T12:48:57.525Z,29.91
2022-08-09T12:51:52.511Z,31.57
2022-08-09T12:54:12.097Z,30.12
2022-08-09T12:56:51.201Z,30.34
2022-08-09T12:59:23.849Z,32.58
2022-08-09T13:02:11.191Z,30.63
2022-08-09T13:04:59.456Z,31.80
2022-08-09T13:07:51.313Z,30.87
2022-08-09T13:10:17.454Z,30.33
2022-08-09T13:13:10.039Z,29.26
2022-08-09T13:15:36.096Z,29.35
2022-08-09T13:18:06.100Z,29.27
2022-08-09T13:21:04.497Z,30.14
2022-08-09T13:24:16.524Z,29.97
2022-08-09T13:26:37.608Z,29.78
2022-08-09T13:29:09.764Z,30.00
2022-08-09T13:32:17.962Z,31.99
2022-08-09T13:34:49.032Z,30.01
2022-08-09T13:37:24.578Z,29.95
2022-08-09T13:41:50.483Z,30.91
2022-08-09T13:42:56.225Z,30.22
2022-08-09T13:45:32.336Z,28.81
2022-08-09T13:48:10.779Z,30.46
2022-08-09T13:50:38.203Z,30.39
2022-08-09T13:53:07.258Z,30.88
2022-08-09T13:55:34.880Z,30.66
2022-08-09T13:58:05.066Z,30.09
2022-08-09T14:00:46.793Z,30.01
2022-08-09T14:04:04.906Z,33.25
2022-08-09T14:06:11.858Z,30.48
2022-08-09T14:08:46.817Z,30.84
2022-08-09T14:11:16.159Z,32.24
2022-08-09T14:14:23.033Z,31.93
2022-08-09T14:16:31.498Z,29.20
2022-08-09T14:19:01.639Z,28.83
2022-08-09T14:21:29.213Z,29.09
2022-08-09T14:23:57.592Z,30.39
2022-08-09T14:26:33.528Z,29.36
2022-08-09T14:29:02.931Z,29.88
2022-08-09T14:31:49.959Z,30.04
2022-08-09T14:34:31.497Z,30.28
2022-08-09T14:37:06.208Z,32.11
2022-08-09T14:39:40.281Z,32.58
2022-08-09T14:42:28.783Z,31.58
2022-08-09T14:46:40.521Z,32.17
2022-08-09T14:47:58.799Z,31.55
2022-08-09T14:50:32.570Z,30.82
2022-08-09T14:53:01.875Z,29.14
2022-08-09T14:55:32.632Z,29.16
2022-08-09T14:58:04.475Z,30.29
2022-08-09T15:00:34.342Z,29.21
2022-08-09T15:03:08.811Z,29.99
2022-08-09T15:05:39.126Z,31.03
2022-08-09T15:08:10.411Z,29.54
2022-08-09T15:10:38.786Z,30.27
2022-08-09T15:13:08.782Z,29.88
2022-08-09T15:15:38.773Z,30.84
2022-08-09T15:18:07.629Z,30.94
2022-08-09T15:21:57.379Z,31.40
2022-08-09T15:24:00.799Z,32.49
2022-08-09T15:26:18.933Z,32.11
2022-08-09T15:28:56.625Z,33.22
2022-08-09T15:31:28.489Z,33.15
2022-08-09T15:34:32.096Z,30.73
2022-08-09T15:36:58.283Z,32.23
2022-08-09T15:39:34.530Z,29.71
2022-08-09T15:42:02.632Z,29.49
2022-08-09T15:44:32.678Z,29.06
2022-08-09T15:47:00.893Z,30.40
2022-08-09T15:49:28.462Z,29.31
2022-08-09T15:52:03.494Z,28.69
2022-08-09T15:54:42.956Z,28.38
2022-08-09T15:57:11.604Z,28.26
2022-08-09T15:59:38.945Z,28.24
2022-08-09T16:02:05.991Z,27.93
2022-08-09T16:04:34.684Z,28.14
2022-08-09T16:07:04.417Z,26.85
2022-08-09T16:09:51.503Z,27.11
2022-08-09T16:12:18.792Z,27.39
2022-08-09T16:14:46.025Z,27.09
2022-08-09T16:17:17.030Z,25.60
2022-08-09T16:19:49.521Z,24.73
2022-08-09T16:22:32.120Z,23.98
2022-08-09T16:25:01.731Z,23.89
2022-08-09T16:27:29.973Z,23.50
2022-08-09T16:30:01.153Z,22.96
2022-08-09T16:32:49.537Z,23.35
2022-08-09T16:35:57.269Z,22.91
2022-08-09T16:38:09.118Z,22.95
2022-08-09T16:40:41.166Z,24.63
2022-08-09T16:43:08.754Z,24.97
2022-08-09T16:45:37.175Z,25.04
2022-08-09T16:48:38.243Z,23.61
2022-08-09T16:50:59.631Z,23.59
2022-08-09T16:53:35.084Z,23.01
2022-08-09T16:56:09.124Z,22.67
2022-08-09T16:58:42.780Z,22.10
2022-08-09T17:01:19.353Z,21.24
2022-08-09T17:03:50.865Z,22.18
2022-08-09T17:06:31.248Z,22.41
2022-08-09T17:09:17.837Z,23.16
2022-08-09T17:11:51.627Z,23.20
2022-08-09T17:14:26.705Z,23.03
2022-08-09T17:17:02.309Z,21.76
2022-08-09T17:20:05.108Z,21.60
2022-08-09T17:22:23.827Z,21.98
2022-08-09T17:25:02.768Z,22.31
2022-08-09T17:27:33.056Z,22.02
2022-08-09T17:30:06.734Z,22.63
2022-08-09T17:32:39.936Z,22.94
2022-08-09T17:35:14.226Z,23.78
2022-08-09T17:38:12.481Z,24.38
2022-08-09T17:40:32.836Z,25.17
2022-08-09T17:43:33.006Z,27.74
2022-08-09T17:46:02.664Z,28.77
2022-08-09T17:48:33.909Z,30.18
2022-08-09T17:51:10.231Z,31.40
2022-08-09T17:53:53.042Z,31.23
2022-08-09T17:56:29.092Z,32.71
2022-08-09T17:59:03.413Z,33.23
2022-08-09T18:02:03.459Z,33.45
2022-08-09T18:04:24.287Z,33.85
2022-08-09T18:06:55.582Z,33.55
2022-08-09T18:09:35.875Z,34.18
2022-08-09T18:12:17.494Z,33.78
2022-08-09T18:14:54.608Z,34.21
2022-08-09T18:18:02.806Z,34.28
2022-08-09T18:20:55.366Z,34.64
2022-08-09T18:23:04.706Z,35.30
2022-08-09T18:25:52.306Z,35.61
2022-08-09T18:30:41.928Z,36.34
2022-08-09T18:31:11.085Z,35.43
2022-08-09T18:33:38.195Z,36.74
2022-08-09T18:36:14.468Z,37.43
2022-08-09T18:38:57.341Z,37.32
2022-08-09T18:41:28.239Z,37.49
2022-08-09T18:43:55.335Z,37.24
2022-08-09T18:46:47.571Z,37.43
2022-08-09T18:49:09.508Z,37.98
2022-08-09T18:51:38.535Z,38.36
2022-08-09T18:54:28.690Z,37.96
2022-08-09T18:57:05.308Z,38.61
2022-08-09T18:59:37.584Z,38.53
2022-08-09T19:02:15.965Z,38.86
2022-08-09T19:04:43.261Z,39.17
2022-08-09T19:07:16.305Z,39.49
2022-08-09T19:10:14.668Z,39.48
2022-08-09T19:12:32.088Z,40.12
2022-08-09T19:15:06.278Z,40.30
2022-08-09T19:17:39.732Z,40.77
2022-08-09T19:20:20.729Z,41.29
2022-08-09T19:22:54.233Z,41.35
2022-08-09T19:25:42.425Z,41.43
2022-08-09T19:28:13.455Z,41.52
2022-08-09T19:30:44.659Z,41.84
2022-08-09T19:33:19.205Z,42.09
2022-08-09T19:35:57.253Z,42.36
2022-08-09T19:38:24.899Z,42.99
2022-08-09T19:40:52.669Z,43.27
2022-08-09T19:43:57.972Z,43.45
2022-08-09T19:46:08.526Z,44.14
2022-08-09T19:49:00.591Z,44.44
2022-08-09T19:51:30.693Z,45.07
2022-08-09T19:53:59.662Z,46.17
2022-08-09T19:56:28.613Z,46.65
2022-08-09T19:59:39.873Z,47.20
2022-08-09T20:01:53.060Z,46.84
2022-08-09T20:04:37.594Z,46.54
2022-08-09T20:07:20.899Z,46.83
2022-08-09T20:09:48.852Z,47.98
2022-08-09T20:12:30.280Z,47.92
2022-08-09T20:16:31.783Z,48.61
2022-08-09T20:17:55.058Z,48.17
2022-08-09T20:20:24.965Z,48.74
2022-08-09T20:22:56.214Z,48.57
2022-08-09T20:25:24.086Z,48.37
2022-08-09T20:27:52.612Z,49.18
2022-08-09T20:30:23.864Z,48.95
2022-08-09T20:32:52.894Z,48.75
2022-08-09T20:35:21.828Z,49.23
2022-08-09T20:38:23.753Z,49.33
2022-08-09T20:40:36.342Z,50.94
2022-08-09T20:43:18.099Z,51.04
2022-08-09T20:46:00.532Z,51.22
2022-08-09T20:48:39.144Z,52.52
2022-08-09T20:51:06.744Z,51.86
2022-08-09T20:53:36.199Z,52.96
2022-08-09T20:56:19.848Z,53.39
2022-08-09T20:58:48.467Z,53.14
2022-08-09T21:01:35.397Z,54.91
2022-08-09T21:04:08.279Z,54.35
2022-08-09T21:06:50.974Z,54.22
2022-08-09T21:09:24.971Z,54.67
2022-08-09T21:14:36.997Z,56.17
2022-08-09T21:18:22.454Z,56.58
2022-08-09T21:20:17.856Z,56.81
2022-08-09T21:22:46.682Z,57.85
2022-08-09T21:25:37.977Z,58.09
2022-08-09T21:28:07.730Z,57.56
2022-08-09T21:30:40.879Z,58.19
2022-08-09T21:33:09.094Z,58.22
2022-08-09T21:35:40.981Z,58.07
2022-08-09T21:38:30.802Z,59.16
2022-08-09T21:40:59.295Z,59.95
2022-08-09T21:43:56.245Z,60.76
2022-08-09T21:46:13.702Z,60.91
2022-08-09T21:48:42.646Z,60.37
2022-08-09T21:51:24.033Z,60.64
2022-08-09T21:53:54.941Z,62.28
2022-08-09T21:56:34.114Z,61.98
2022-08-09T21:59:09.808Z,63.06
2022-08-09T22:01:59.220Z,63.78
2022-08-09T22:04:55.074Z,63.46
2022-08-09T22:07:14.244Z,63.59
2022-08-09T22:09:50.552Z,62.45
2022-08-09T22:12:34.800Z,63.80
2022-08-09T22:15:03.046Z,63.93
2022-08-09T22:17:32.174Z,64.13
2022-08-09T22:20:00.784Z,64.52
2022-08-09T22:22:29.526Z,65.29
2022-08-09T22:26:06.900Z,63.88
2022-08-09T22:27:43.725Z,63.78
2022-08-09T22:30:11.471Z,64.91
2022-08-09T22:32:38.595Z,63.84
2022-08-09T22:36:00.101Z,65.35
2022-08-09T22:38:06.787Z,64.70
2022-08-09T22:40:35.598Z,66.13
2022-08-09T22:43:16.243Z,65.71
2022-08-09T22:48:16.876Z,65.18
2022-08-09T22:48:37.128Z,64.05
2022-08-09T22:51:10.410Z,62.58
2022-08-09T22:53:58.305Z,62.84
2022-08-09T22:56:33.197Z,63.08
2022-08-09T22:59:55.384Z,64.38
2022-08-09T23:01:53.494Z,64.71
2022-08-09T23:04:20.709Z,63.61
2022-08-09T23:07:11.119Z,63.70
2022-08-09T23:09:40.877Z,62.75
2022-08-09T23:12:08.802Z,62.65
2022-08-09T23:14:41.383Z,64.82
2022-08-09T23:17:10.759Z,65.35
2022-08-09T23:20:06.244Z,64.51
2022-08-09T23:22:25.083Z,67.15
2022-08-09T23:24:52.152Z,67.59
2022-08-09T23:27:19.340Z,68.54
2022-08-09T23:29:46.371Z,69.14
2022-08-09T23:32:13.545Z,69.71
2022-08-09T23:34:40.669Z,68.39
2022-08-09T23:37:07.793Z,67.89
2022-08-09T23:39:34.867Z,68.17
2022-08-09T23:42:01.958Z,66.77
2022-08-09T23:44:30.038Z,68.78
2022-08-09T23:46:57.736Z,67.27
2022-08-09T23:49:26.177Z,67.93
2022-08-09T23:51:54.147Z,68.96
2022-08-09T23:54:26.477Z,69.86
2022-08-09T23:56:56.016Z,70.46
2022-08-09T23:59:25.260Z,71.55
